createdAt,value
2023-05-02T00:01:04.812Z,10.20
2023-05-02T00:03:48.358Z,10.18
2023-05-02T00:06:39.308Z,10.17
2023-05-02T00:09:46.849Z,10.17
2023-05-02T00:12:26.334Z,10.15
2023-05-02T00:15:16.772Z,10.12
2023-05-02T00:17:54.362Z,10.10
2023-05-02T00:20:57.389Z,10.13
2023-05-02T00:23:43.189Z,10.13
2023-05-02T00:26:24.895Z,10.11
2023-05-02T00:28:58.237Z,10.08
2023-05-02T00:31:32.813Z,10.06
2023-05-02T00:34:40.105Z,10.02
2023-05-02T00:37:15.388Z,9.99
2023-05-02T00:39:53.864Z,9.96
2023-05-02T00:42:35.826Z,9.93
2023-05-02T00:45:19.236Z,9.91
2023-05-02T00:47:55.425Z,9.89
2023-05-02T00:50:31.849Z,9.87
2023-05-02T00:53:05.843Z,9.84
2023-05-02T00:55:41.903Z,9.79
2023-05-02T01:02:05.340Z,9.72
2023-05-02T01:05:19.839Z,9.65
2023-05-02T01:08:22.785Z,9.60
2023-05-02T01:11:22.533Z,9.55
2023-05-02T01:14:02.008Z,9.52
2023-05-02T01:18:00.111Z,9.49
2023-05-02T01:20:44.888Z,9.44
2023-05-02T01:23:28.146Z,9.39
2023-05-02T01:26:40.135Z,9.39
2023-05-02T01:29:17.019Z,9.35
2023-05-02T01:32:03.279Z,9.30
2023-05-02T01:34:46.493Z,9.28
2023-05-02T01:37:23.571Z,9.27
2023-05-02T01:39:57.374Z,9.27
2023-05-02T01:42:27.883Z,9.26
2023-05-02T01:45:15.774Z,9.24
2023-05-02T01:48:22.196Z,9.24
2023-05-02T01:51:03.105Z,9.23
2023-05-02T01:54:18.744Z,9.20
2023-05-02T01:56:56.666Z,9.18
2023-05-02T01:59:43.084Z,9.15
2023-05-02T02:02:36.408Z,9.11
2023-05-02T02:08:11.747Z,8.95
2023-05-02T02:11:22.649Z,9.03
2023-05-02T02:15:02.693Z,8.98
2023-05-02T02:18:01.561Z,8.86
2023-05-02T02:25:39.424Z,8.78
2023-05-02T02:28:27.761Z,8.75
2023-05-02T02:31:22.889Z,8.71
2023-05-02T02:33:58.935Z,8.72
2023-05-02T02:37:14.004Z,8.71
2023-05-02T02:40:03.850Z,8.64
2023-05-02T02:43:40.567Z,8.69
2023-05-02T02:47:15.486Z,8.68
2023-05-02T02:49:58.947Z,8.62
2023-05-02T02:53:18.105Z,8.59
2023-05-02T02:56:08.054Z,8.60
2023-05-02T02:59:17.856Z,8.58
2023-05-02T03:02:16.812Z,8.57
2023-05-02T03:04:47.154Z,8.57
2023-05-02T03:07:42.450Z,8.57
2023-05-02T03:11:09.402Z,8.62
2023-05-02T03:14:31.461Z,8.68
2023-05-02T03:17:38.641Z,8.70
2023-05-02T03:20:37.052Z,8.74
2023-05-02T03:23:20.002Z,8.78
2023-05-02T03:25:57.881Z,8.84
2023-05-02T03:29:36.098Z,8.89
2023-05-02T03:32:15.965Z,8.88
2023-05-02T03:35:07.899Z,9.00
2023-05-02T03:37:47.639Z,9.07
2023-05-02T03:40:45.191Z,9.08
2023-05-02T03:43:22.705Z,9.13
2023-05-02T03:46:07.807Z,9.18
2023-05-02T03:49:01.738Z,9.25
2023-05-02T03:52:23.582Z,9.32
2023-05-02T03:55:12.138Z,9.39
2023-05-02T03:58:58.582Z,9.44
2023-05-02T04:01:55.278Z,9.51
2023-05-02T04:04:57.930Z,9.57
2023-05-02T04:07:44.629Z,9.65
2023-05-02T04:10:25.559Z,9.72
2023-05-02T04:13:28.949Z,9.80
2023-05-02T04:16:32.634Z,9.90
2023-05-02T04:23:59.448Z,10.05
2023-05-02T04:26:46.977Z,10.14
2023-05-02T04:29:20.685Z,10.25
2023-05-02T04:32:02.264Z,10.35
2023-05-02T04:34:38.467Z,10.50
2023-05-02T04:37:26.351Z,10.61
2023-05-02T04:40:24.062Z,10.71
2023-05-02T04:43:15.516Z,10.83
2023-05-02T04:46:18.877Z,10.92
2023-05-02T04:49:43.947Z,11.02
2023-05-02T04:52:42.674Z,11.12
2023-05-02T04:55:25.928Z,11.18
2023-05-02T04:58:50.482Z,11.25
2023-05-02T05:01:31.032Z,11.32
2023-05-02T05:04:05.312Z,11.38
2023-05-02T05:10:18.850Z,11.57
2023-05-02T05:13:20.090Z,11.62
2023-05-02T05:16:02.186Z,11.67
2023-05-02T05:22:52.403Z,11.80
2023-05-02T05:26:19.686Z,11.83
2023-05-02T05:29:15.488Z,11.84
2023-05-02T05:32:51.193Z,11.87
2023-05-02T05:43:04.766Z,12.13
2023-05-02T05:46:39.355Z,12.17
2023-05-02T05:53:29.969Z,12.35
2023-05-02T06:01:19.537Z,12.63
2023-05-02T06:04:20.544Z,12.73
2023-05-02T06:13:06.893Z,12.74
2023-05-02T06:23:19.304Z,13.01
2023-05-02T06:35:21.533Z,13.20
2023-05-02T06:42:17.129Z,13.24
2023-05-02T06:45:17.707Z,13.34
2023-05-02T06:47:51.688Z,13.43
2023-05-02T06:50:57.321Z,13.50
2023-05-02T06:56:44.108Z,13.66
2023-05-02T06:59:48.095Z,13.74
2023-05-02T07:02:45.679Z,13.77
2023-05-02T07:05:42.880Z,13.78
2023-05-02T07:08:26.493Z,13.86
2023-05-02T07:11:29.097Z,13.95
2023-05-02T07:17:22.788Z,14.06
2023-05-02T07:24:02.447Z,14.16
2023-05-02T07:26:55.075Z,14.19
2023-05-02T07:30:16.474Z,14.20
2023-05-02T07:36:35.280Z,14.30
2023-05-02T07:40:25.632Z,14.28
2023-05-02T07:43:13.882Z,14.41
2023-05-02T07:45:51.577Z,14.42
2023-05-02T07:48:33.564Z,14.49
2023-05-02T07:51:34.142Z,14.58
2023-05-02T08:00:04.202Z,14.75
2023-05-02T08:03:16.392Z,14.81
2023-05-02T08:06:14.667Z,14.89
2023-05-02T08:09:17.715Z,14.95
2023-05-02T08:16:29.762Z,15.08
2023-05-02T08:20:15.917Z,15.12
2023-05-02T08:30:32.568Z,15.21
2023-05-02T08:33:58.715Z,15.25
2023-05-02T08:37:23.712Z,15.33
2023-05-02T08:40:03.142Z,15.38
2023-05-02T08:42:46.898Z,15.44
2023-05-02T08:45:30.426Z,15.52
2023-05-02T08:49:09.928Z,15.56
2023-05-02T08:53:00.859Z,15.56
2023-05-02T08:56:35.551Z,15.52
2023-05-02T08:59:49.837Z,15.55
2023-05-02T09:03:23.665Z,15.65
2023-05-02T09:10:49.647Z,15.81
2023-05-02T09:13:53.562Z,15.83
2023-05-02T09:16:38.827Z,15.84
2023-05-02T09:20:04.007Z,15.89
2023-05-02T09:23:05.523Z,15.99
2023-05-02T09:30:30.688Z,16.00
2023-05-02T09:33:31.406Z,15.89
2023-05-02T09:36:30.900Z,15.92
2023-05-02T09:39:34.871Z,15.94
2023-05-02T09:42:46.864Z,16.10
2023-05-02T09:56:08.237Z,16.50
2023-05-02T09:59:23.489Z,16.58
2023-05-02T10:03:29.805Z,16.70
2023-05-02T10:06:06.577Z,16.72
2023-05-02T10:17:07.248Z,16.99
2023-05-02T10:20:41.469Z,16.93
2023-05-02T10:24:16.734Z,16.91
2023-05-02T10:27:06.436Z,16.91
2023-05-02T10:30:50.600Z,16.97
2023-05-02T10:33:37.168Z,17.08
2023-05-02T10:36:37.557Z,17.06
2023-05-02T10:40:10.389Z,17.13
2023-05-02T10:46:56.756Z,17.24
2023-05-02T10:55:28.455Z,17.38
2023-05-02T10:58:50.484Z,17.51
2023-05-02T11:02:17.930Z,17.59
2023-05-02T11:06:05.637Z,17.72
2023-05-02T11:18:24.177Z,17.95
2023-05-02T11:30:58.885Z,18.13
2023-05-02T11:34:25.009Z,18.13
2023-05-02T11:37:51.017Z,18.12
2023-05-02T11:52:24.734Z,18.36
2023-05-02T11:56:48.470Z,18.41
2023-05-02T12:00:45.270Z,18.51
2023-05-02T12:03:47.481Z,18.57
2023-05-02T12:06:39.301Z,18.59
2023-05-02T12:16:27.767Z,18.64
2023-05-02T12:23:51.259Z,18.61
2023-05-02T12:26:47.384Z,18.59
2023-05-02T12:30:05.005Z,18.67
2023-05-02T12:33:37.507Z,18.68
2023-05-02T12:46:44.399Z,18.85
2023-05-02T12:50:04.004Z,18.82
2023-05-02T12:53:14.207Z,18.74
2023-05-02T12:56:48.850Z,18.74
2023-05-02T13:08:27.408Z,18.71
2023-05-02T13:11:14.854Z,18.72
2023-05-02T13:23:25.021Z,18.58
2023-05-02T13:33:23.145Z,18.66
2023-05-02T13:58:34.551Z,19.85
2023-05-02T14:10:48.680Z,20.53
2023-05-02T14:30:35.041Z,21.21
2023-05-02T14:34:13.764Z,21.17
2023-05-02T14:36:59.122Z,21.21
2023-05-02T14:40:25.571Z,21.25
2023-05-02T14:43:30.020Z,21.33
2023-05-02T14:46:16.842Z,21.41
2023-05-02T15:12:52.334Z,21.44
2023-05-02T15:20:44.662Z,21.40
2023-05-02T15:24:31.190Z,21.28
2023-05-02T15:27:25.445Z,21.24
2023-05-02T15:34:42.598Z,21.41
2023-05-02T15:38:33.338Z,21.45
2023-05-02T15:46:48.977Z,21.18
2023-05-02T15:53:40.314Z,20.45
2023-05-02T16:21:00.636Z,18.64
2023-05-02T17:20:18.960Z,15.72
2023-05-02T17:37:49.382Z,15.25
2023-05-02T18:01:33.601Z,14.67
2023-05-02T18:30:50.375Z,14.24
2023-05-02T18:33:57.023Z,14.20
2023-05-02T18:42:26.912Z,14.10
2023-05-02T18:45:47.369Z,14.05
2023-05-02T19:31:05.566Z,13.21
2023-05-02T19:34:58.197Z,13.16
2023-05-02T19:37:51.469Z,13.12
2023-05-02T19:50:07.670Z,13.03
2023-05-02T20:11:24.925Z,12.99
2023-05-02T20:14:24.486Z,12.93
2023-05-02T20:21:18.618Z,12.86
2023-05-02T20:28:34.726Z,12.77
2023-05-02T20:32:02.983Z,12.72
2023-05-02T20:36:11.049Z,12.71
2023-05-02T20:38:49.413Z,12.65
2023-05-02T20:41:39.996Z,12.63
2023-05-02T20:44:48.701Z,12.62
2023-05-02T20:48:18.028Z,12.61
2023-05-02T20:56:01.188Z,12.55
2023-05-02T20:59:31.676Z,12.49
2023-05-02T21:03:19.251Z,12.46
2023-05-02T21:06:00.628Z,12.42
2023-05-02T21:09:04.779Z,12.38
2023-05-02T21:11:47.820Z,12.38
2023-05-02T21:15:04.059Z,12.36
2023-05-02T21:18:07.727Z,12.35
2023-05-02T21:20:56.983Z,12.32
2023-05-02T21:24:03.509Z,12.30
2023-05-02T21:31:51.936Z,12.27
2023-05-02T21:39:56.853Z,12.18
2023-05-02T21:42:47.972Z,12.13
2023-05-02T21:45:54.404Z,12.10
2023-05-02T21:48:46.209Z,12.07
2023-05-02T21:51:39.772Z,12.02
2023-05-02T21:54:27.533Z,11.94
2023-05-02T22:01:24.460Z,11.89
2023-05-02T22:04:13.046Z,11.88
2023-05-02T22:06:58.676Z,11.85
2023-05-02T22:09:48.522Z,11.85
2023-05-02T22:12:36.492Z,11.85
2023-05-02T22:15:22.474Z,11.84
2023-05-02T22:18:30.194Z,11.82
2023-05-02T22:21:22.428Z,11.80
2023-05-02T22:24:20.199Z,11.77
2023-05-02T22:27:06.794Z,11.75
2023-05-02T22:29:59.210Z,11.72
2023-05-02T22:32:46.983Z,11.69
2023-05-02T22:35:38.372Z,11.66
2023-05-02T22:38:17.104Z,11.63
2023-05-02T22:41:13.981Z,11.62
2023-05-02T22:44:11.880Z,11.61
2023-05-02T22:46:49.633Z,11.59
2023-05-02T22:50:21.195Z,11.56
2023-05-02T22:53:05.032Z,11.52
2023-05-02T22:55:44.910Z,11.46
2023-05-02T22:58:28.413Z,11.44
2023-05-02T23:01:12.206Z,11.44
2023-05-02T23:04:38.598Z,11.44
2023-05-02T23:07:28.858Z,11.45
2023-05-02T23:10:18.016Z,11.43
2023-05-02T23:12:58.863Z,11.41
2023-05-02T23:15:29.215Z,11.42
2023-05-02T23:18:23.282Z,11.43
2023-05-02T23:21:04.332Z,11.44
2023-05-02T23:24:15.550Z,11.45
2023-05-02T23:26:51.054Z,11.44
2023-05-02T23:29:33.494Z,11.38
2023-05-02T23:32:15.893Z,11.33
2023-05-02T23:34:55.178Z,11.32
2023-05-02T23:37:30.009Z,11.26
2023-05-02T23:40:11.672Z,11.22
2023-05-02T23:42:45.117Z,11.23
2023-05-02T23:45:19.902Z,11.25
2023-05-02T23:48:00.039Z,11.21
2023-05-02T23:50:33.399Z,11.28
2023-05-02T23:53:17.592Z,11.32
2023-05-02T23:55:58.251Z,11.35
2023-05-02T23:59:01.306Z,11.36
